HMS Portugal — V2NA6 — position and weather

sailwx.info

Track history (hours):
 
Tides and Currents Weather Stations Pressure Air Temp Water Temp Dewpoint Dewpoint Depression Visibility Wind Speed Wind Dir Waves Ship Positions

HMS Portugal

Last reported at 2017-Nov-22 23:58 UTC. Time now 2017-Nov-23 00:19 UTC.
Position N 26°46' W 080°03'.

Length 100 m; draft 6.2 m.

Type: Cargo ship. MMSI: 203640704.

Date/timePositionNaut miles runAvg speedWind from/ knotsBaromVisibWave heightAir tempDewpointWater temp
2017-Nov-22 23:58N 26°46' W 080°03'0 0.0
2017-Nov-22 23:28N 26°46' W 080°03'0 0.2
2017-Nov-22 23:00N 26°46' W 080°03'2 4.6
2017-Nov-22 22:31N 26°47' W 080°01'2 3.7
2017-Nov-22 22:00N 26°46' W 079°59'3 6.8
2017-Nov-22 21:30N 26°46' W 079°55'4 7.5
2017-Nov-22 21:01N 26°45' W 079°51'6 8.9
2017-Nov-22 20:21N 26°44' W 079°44'  
2017-Nov-17 14:03N 25°34' W 079°34'112.6
2017-Nov-17 14:00N 25°35' W 079°34'612.6
2017-Nov-17 13:30N 25°41' W 079°33'612.7
2017-Nov-17 13:01N 25°47' W 079°33'612.6
2017-Nov-17 12:30N 25°54' W 079°32'712.8
2017-Nov-17 11:59N 26°00' W 079°31'613.0
2017-Nov-17 11:30N 26°06' W 079°30'613.1
2017-Nov-17 11:01N 26°13' W 079°29'612.4
2017-Nov-17 10:30N 26°19' W 079°31'612.4
2017-Nov-17 10:00N 26°23' W 079°36'612.1
2017-Nov-17 09:30N 26°28' W 079°40'2311.7
2017-Nov-17 07:31N 26°46' W 079°57'113.0
2017-Nov-17 07:27N 26°46' W 079°58'4 9.1
2017-Nov-17 07:00N 26°46' W 080°03'0 0.1
2017-Nov-17 02:37N 26°46' W 080°03'0 0.0
2017-Nov-17 02:28N 26°46' W 080°03'0 0.0
2017-Nov-16 17:31N 26°46' W 080°03'0 0.0
2017-Nov-16 17:28N 26°46' W 080°03'0 0.0
2017-Nov-16 16:58N 26°46' W 080°03'0 0.0
2017-Nov-16 16:28N 26°46' W 080°03'0 0.0
2017-Nov-16 15:58N 26°46' W 080°03'0 0.0
2017-Nov-16 15:28N 26°46' W 080°03'0 0.0
2017-Nov-16 14:58N 26°46' W 080°03'0 0.0
2017-Nov-16 14:28N 26°46' W 080°03'0 0.0
2017-Nov-16 13:58N 26°46' W 080°03'0 0.0
2017-Nov-16 13:28N 26°46' W 080°03'0 0.0
2017-Nov-16 12:58N 26°46' W 080°03'0 0.0
2017-Nov-16 12:28N 26°46' W 080°03'0 0.0
2017-Nov-16 11:58N 26°46' W 080°03'0 0.0
2017-Nov-16 11:25N 26°46' W 080°03'0 0.0
2017-Nov-16 10:58N 26°46' W 080°03'0 0.0
2017-Nov-16 10:28N 26°46' W 080°03'0 0.0
2017-Nov-16 09:58N 26°46' W 080°03'0 0.0
2017-Nov-16 09:28N 26°46' W 080°03'0 0.0
2017-Nov-16 08:58N 26°46' W 080°03'0 0.0
2017-Nov-16 08:28N 26°46' W 080°03'0 0.0
2017-Nov-16 07:58N 26°46' W 080°03'0 0.0
2017-Nov-16 07:28N 26°46' W 080°03'0 0.0
2017-Nov-16 06:58N 26°46' W 080°03'0 0.0
2017-Nov-16 06:28N 26°46' W 080°03'0 0.0
2017-Nov-16 05:58N 26°46' W 080°03'0 0.0
2017-Nov-16 05:28N 26°46' W 080°03'0 0.0
2017-Nov-16 04:58N 26°46' W 080°03'0 0.0
2017-Nov-16 04:28N 26°46' W 080°03'0 0.0
2017-Nov-16 03:58N 26°46' W 080°03'0 0.0
2017-Nov-16 03:28N 26°46' W 080°03'0 0.0
2017-Nov-16 03:00N 26°46' W 080°03'0 0.0
2017-Nov-16 02:30N 26°46' W 080°03'0 0.0
2017-Nov-16 02:00N 26°46' W 080°03'0 0.0
2017-Nov-16 01:30N 26°46' W 080°03'0 0.0
2017-Nov-16 01:00N 26°46' W 080°03'0 0.0
2017-Nov-16 00:31N 26°46' W 080°03'0 0.0
2017-Nov-16 00:01N 26°46' W 080°03'0 0.0
2017-Nov-15 23:30N 26°46' W 080°03'0 0.0
2017-Nov-15 23:00N 26°46' W 080°03'0 0.3
2017-Nov-15 22:30N 26°46' W 080°03'3 5.8
2017-Nov-15 22:00N 26°46' W 079°60'713.7
2017-Nov-15 21:30N 26°46' W 079°52'612.6
2017-Nov-15 21:00N 26°47' W 079°45'5210.7
2017-Nov-15 16:11N 25°57' W 079°32'212.0
2017-Nov-15 16:00N 25°55' W 079°32'611.9
2017-Nov-15 15:30N 25°49' W 079°33'612.0
2017-Nov-15 15:00N 25°43' W 079°33'612.1
2017-Nov-15 14:30N 25°37' W 079°33'713.1
2017-Nov-15 13:57N 25°30' W 079°35'612.5
2017-Nov-15 13:30N 25°24' W 079°35'  
Track history (hours):
 
Tides and Currents Weather Stations Pressure Air Temp Water Temp Dewpoint Dewpoint Depression Visibility Wind Speed Wind Dir Waves Ship Positions

HMS Portugal

Last reported at 2017-Nov-22 23:58 UTC. Time now 2017-Nov-23 00:19 UTC.
Position N 26°46' W 080°03'.

Length 100 m; draft 6.2 m.

Type: Cargo ship. MMSI: 203640704.

Date/timePositionNaut miles runAvg speedWind from/ knotsBaromVisibWave heightAir tempDewpointWater temp
2017-Nov-22 23:58N 26°46' W 080°03'0 0.0
2017-Nov-22 23:28N 26°46' W 080°03'0 0.2
2017-Nov-22 23:00N 26°46' W 080°03'2 4.6
2017-Nov-22 22:31N 26°47' W 080°01'2 3.7
2017-Nov-22 22:00N 26°46' W 079°59'3 6.8
2017-Nov-22 21:30N 26°46' W 079°55'4 7.5
2017-Nov-22 21:01N 26°45' W 079°51'6 8.9
2017-Nov-22 20:21N 26°44' W 079°44'  
2017-Nov-17 14:03N 25°34' W 079°34'112.6
2017-Nov-17 14:00N 25°35' W 079°34'612.6
2017-Nov-17 13:30N 25°41' W 079°33'612.7
2017-Nov-17 13:01N 25°47' W 079°33'612.6
2017-Nov-17 12:30N 25°54' W 079°32'712.8
2017-Nov-17 11:59N 26°00' W 079°31'613.0
2017-Nov-17 11:30N 26°06' W 079°30'613.1
2017-Nov-17 11:01N 26°13' W 079°29'612.4
2017-Nov-17 10:30N 26°19' W 079°31'612.4
2017-Nov-17 10:00N 26°23' W 079°36'612.1
2017-Nov-17 09:30N 26°28' W 079°40'2311.7
2017-Nov-17 07:31N 26°46' W 079°57'113.0
2017-Nov-17 07:27N 26°46' W 079°58'4 9.1
2017-Nov-17 07:00N 26°46' W 080°03'0 0.1
2017-Nov-17 02:37N 26°46' W 080°03'0 0.0
2017-Nov-17 02:28N 26°46' W 080°03'0 0.0
2017-Nov-16 17:31N 26°46' W 080°03'0 0.0
2017-Nov-16 17:28N 26°46' W 080°03'0 0.0
2017-Nov-16 16:58N 26°46' W 080°03'0 0.0
2017-Nov-16 16:28N 26°46' W 080°03'0 0.0
2017-Nov-16 15:58N 26°46' W 080°03'0 0.0
2017-Nov-16 15:28N 26°46' W 080°03'0 0.0
2017-Nov-16 14:58N 26°46' W 080°03'0 0.0
2017-Nov-16 14:28N 26°46' W 080°03'0 0.0
2017-Nov-16 13:58N 26°46' W 080°03'0 0.0
2017-Nov-16 13:28N 26°46' W 080°03'0 0.0
2017-Nov-16 12:58N 26°46' W 080°03'0 0.0
2017-Nov-16 12:28N 26°46' W 080°03'0 0.0
2017-Nov-16 11:58N 26°46' W 080°03'0 0.0
2017-Nov-16 11:25N 26°46' W 080°03'0 0.0
2017-Nov-16 10:58N 26°46' W 080°03'0 0.0
2017-Nov-16 10:28N 26°46' W 080°03'0 0.0
2017-Nov-16 09:58N 26°46' W 080°03'0 0.0
2017-Nov-16 09:28N 26°46' W 080°03'0 0.0
2017-Nov-16 08:58N 26°46' W 080°03'0 0.0
2017-Nov-16 08:28N 26°46' W 080°03'0 0.0
2017-Nov-16 07:58N 26°46' W 080°03'0 0.0
2017-Nov-16 07:28N 26°46' W 080°03'0 0.0
2017-Nov-16 06:58N 26°46' W 080°03'0 0.0
2017-Nov-16 06:28N 26°46' W 080°03'0 0.0
2017-Nov-16 05:58N 26°46' W 080°03'0 0.0
2017-Nov-16 05:28N 26°46' W 080°03'0 0.0
2017-Nov-16 04:58N 26°46' W 080°03'0 0.0
2017-Nov-16 04:28N 26°46' W 080°03'0 0.0
2017-Nov-16 03:58N 26°46' W 080°03'0 0.0
2017-Nov-16 03:28N 26°46' W 080°03'0 0.0
2017-Nov-16 03:00N 26°46' W 080°03'0 0.0
2017-Nov-16 02:30N 26°46' W 080°03'0 0.0
2017-Nov-16 02:00N 26°46' W 080°03'0 0.0
2017-Nov-16 01:30N 26°46' W 080°03'0 0.0
2017-Nov-16 01:00N 26°46' W 080°03'0 0.0
2017-Nov-16 00:31N 26°46' W 080°03'0 0.0
2017-Nov-16 00:01N 26°46' W 080°03'0 0.0
2017-Nov-15 23:30N 26°46' W 080°03'0 0.0
2017-Nov-15 23:00N 26°46' W 080°03'0 0.3
2017-Nov-15 22:30N 26°46' W 080°03'3 5.8
2017-Nov-15 22:00N 26°46' W 079°60'713.7
2017-Nov-15 21:30N 26°46' W 079°52'612.6
2017-Nov-15 21:00N 26°47' W 079°45'5210.7
2017-Nov-15 16:11N 25°57' W 079°32'212.0
2017-Nov-15 16:00N 25°55' W 079°32'611.9
2017-Nov-15 15:30N 25°49' W 079°33'612.0
2017-Nov-15 15:00N 25°43' W 079°33'612.1
2017-Nov-15 14:30N 25°37' W 079°33'713.1
2017-Nov-15 13:57N 25°30' W 079°35'612.5
2017-Nov-15 13:30N 25°24' W 079°35'  

Dump ship's entire track history